Terminal Aerodrome Forecast
Issued by NWS Cleveland, OH

Home | Current Version | Previous Version | Text Only | Print | Product List | Glossary On
Versions: 1 2 3 4 5 6 7 8 9 10 11 12 13 14 15 16 17 18 19 20
000
FTUS41 KCLE 051131
TAFMFD
TAF
KMFD 051131Z 0512/0612 27010KT P6SM SCT007 OVC012
      TEMPO 0516/0518 BKN007
     FM051800 23008KT P6SM OVC015
     FM052000 19006KT P6SM SCT015 BKN025
     FM060000 12006KT P6SM FEW025 SCT100 OVC200=

USA.gov is the U.S. government's official web portal to all federal, state and local government web resources and services.